Time;durP1;ratioP1;P1;durP2;ratioP2;P2;SDS_P1;SDS_P2;PMS_P1;PMS_P2;Temp;Humidity;BMP_temperature;BMP_pressure;BME280_temperature;BME280_humidity;BME280_pressure;Samples;Min_cycle;Max_cycle;Signal;HPM_P1;HPM_P2
2022/09/22 00:01:17;;;;;;;18.10;11.05;;;;;;;5.77;100.00;95188.53;5104759;27;20512;-72
2022/09/22 00:03:50;;;;;;;17.92;10.23;;;;;;;5.72;100.00;95181.31;5105588;27;20134;-72
2022/09/22 00:06:21;;;;;;;16.40;9.57;;;;;;;5.70;100.00;95174.78;5086683;27;20067;-72
2022/09/22 00:08:52;;;;;;;19.10;11.40;;;;;;;5.69;100.00;95175.75;5083645;28;20437;-72
2022/09/22 00:11:27;;;;;;;15.55;9.02;;;;;;;5.67;100.00;95180.31;5103339;28;20528;-73
2022/09/22 00:14:02;;;;;;;16.75;10.32;;;;;;;5.63;100.00;95177.31;5103777;27;20536;-72
2022/09/22 00:16:32;;;;;;;15.88;8.30;;;;;;;5.63;100.00;95181.69;5085433;28;20145;-72
2022/09/22 00:18:59;;;;;;;16.88;9.75;;;;;;;5.54;100.00;95168.13;5101445;28;20504;-73
2022/09/22 00:21:26;;;;;;;14.90;8.48;;;;;;;5.33;100.00;95135.41;5103157;28;20036;-73
2022/09/22 00:23:53;;;;;;;16.35;9.35;;;;;;;5.64;100.00;95183.28;5070248;27;20070;-72
2022/09/22 00:26:22;;;;;;;16.98;8.50;;;;;;;5.64;100.00;95181.50;5088579;27;20134;-72
2022/09/22 00:28:50;;;;;;;16.83;9.88;;;;;;;5.54;100.00;95174.09;5104304;27;20039;-72
2022/09/22 00:31:20;;;;;;;12.52;8.23;;;;;;;5.51;100.00;95184.00;5105700;27;20034;-71
2022/09/22 00:33:48;;;;;;;14.85;8.95;;;;;;;5.43;100.00;95168.66;5105412;27;20044;-71
2022/09/22 00:36:17;;;;;;;16.42;9.38;;;;;;;5.50;100.00;95178.03;5103394;27;20363;-72
2022/09/22 00:38:45;;;;;;;14.40;8.73;;;;;;;5.54;100.00;95184.41;5106055;27;20112;-72
2022/09/22 00:41:24;;;;;;;16.92;9.50;;;;;;;5.57;100.00;95178.09;5107115;27;20036;-72
2022/09/22 00:44:25;;;;;;;14.75;8.73;;;;;;;5.48;100.00;95184.41;5082574;28;20039;-72
2022/09/22 00:47:17;;;;;;;13.95;8.73;;;;;;;5.37;100.00;95170.22;5102056;28;20047;-74
2022/09/22 00:50:19;;;;;;;16.45;9.00;;;;;;;5.33;100.00;95177.56;5107638;27;20047;-73
2022/09/22 00:52:51;;;;;;;15.18;9.35;;;;;;;5.29;100.00;95175.53;5089179;27;20047;-73
2022/09/22 00:55:46;;;;;;;16.10;8.70;;;;;;;5.25;100.00;95174.31;5104914;27;20047;-73
2022/09/22 00:58:16;;;;;;;13.23;8.32;;;;;;;5.23;100.00;95164.16;5101333;28;20485;-73
2022/09/22 01:00:43;;;;;;;12.52;7.82;;;;;;;5.16;100.00;95164.13;5105475;27;20512;-73
2022/09/22 01:03:15;;;;;;;12.73;7.50;;;;;;;5.08;100.00;95159.13;5073568;28;20045;-73
2022/09/22 01:05:45;;;;;;;13.63;7.68;;;;;;;5.08;100.00;95169.44;5051782;28;20052;-73
2022/09/22 01:08:12;;;;;;;11.95;7.53;;;;;;;4.94;100.00;95154.84;5069439;28;20064;-72
2022/09/22 01:10:39;;;;;;;12.23;6.95;;;;;;;5.01;100.00;95166.03;5066979;28;20072;-72
2022/09/22 01:13:35;;;;;;;11.57;6.80;;;;;;;4.93;100.00;95145.50;5071304;28;20451;-73
2022/09/22 01:16:28;;;;;;;12.52;7.43;;;;;;;4.91;100.00;95168.13;5067846;28;20053;-73
2022/09/22 01:19:20;;;;;;;12.90;7.50;;;;;;;4.79;100.00;95167.84;5072450;28;20029;-72
2022/09/22 01:22:16;;;;;;;13.88;7.55;;;;;;;4.64;100.00;95147.25;5049638;28;20070;-74
2022/09/22 01:25:29;;;;;;;13.25;8.38;;;;;;;4.60;100.00;95161.50;5033369;28;20071;-73
2022/09/22 01:28:31;;;;;;;13.05;7.88;;;;;;;4.62;100.00;95169.88;5070466;28;20055;-73
2022/09/22 01:31:05;;;;;;;12.07;7.28;;;;;;;4.56;100.00;95170.63;5037688;28;20054;-73
2022/09/22 01:33:38;;;;;;;12.87;7.73;;;;;;;4.55;100.00;95174.16;5069704;28;20050;-73
2022/09/22 01:36:31;;;;;;;14.23;7.68;;;;;;;4.52;100.00;95169.38;5067479;28;20055;-72
2022/09/22 01:39:13;;;;;;;14.27;7.47;;;;;;;4.44;100.00;95166.94;5069138;28;20131;-73
2022/09/22 01:42:01;;;;;;;14.77;7.35;;;;;;;4.46;100.00;95170.13;5064990;28;20041;-73
2022/09/22 01:44:53;;;;;;;14.95;7.70;;;;;;;4.45;100.00;95163.34;5063142;28;20040;-73
2022/09/22 01:47:31;;;;;;;13.93;7.93;;;;;;;4.47;100.00;95171.72;5068224;28;20099;-73
2022/09/22 01:50:04;;;;;;;15.98;7.53;;;;;;;4.45;100.00;95168.50;5046944;28;20047;-73
2022/09/22 01:52:34;;;;;;;10.23;6.53;;;;;;;4.47;100.00;95166.56;5070959;28;20494;-73
2022/09/22 01:55:45;;;;;;;12.38;6.93;;;;;;;4.49;100.00;95164.59;5045748;28;20552;-73
2022/09/22 01:58:19;;;;;;;11.48;6.07;;;;;;;4.26;100.00;95155.25;5019189;28;20152;-73
2022/09/22 02:00:55;;;;;;;9.70;6.03;;;;;;;4.25;100.00;95153.66;5003532;28;20155;-73
2022/09/22 02:04:03;;;;;;;9.43;6.30;;;;;;;4.30;100.00;95160.84;5017306;28;20102;-73
2022/09/22 02:06:43;;;;;;;11.25;5.72;;;;;;;4.20;100.00;95163.72;5028209;28;20054;-72
2022/09/22 02:09:14;;;;;;;9.70;6.05;;;;;;;4.15;100.00;95163.47;5057062;28;20098;-73
2022/09/22 02:11:41;;;;;;;10.10;5.57;;;;;;;4.13;100.00;95165.44;5054549;28;20507;-73
2022/09/22 02:14:08;;;;;;;12.45;5.43;;;;;;;4.12;100.00;95158.66;5060342;28;20106;-73
2022/09/22 02:16:35;;;;;;;14.55;6.25;;;;;;;4.14;100.00;95161.84;5062945;28;20032;-73
2022/09/22 02:19:04;;;;;;;11.85;5.82;;;;;;;4.07;100.00;95155.84;5058946;28;20071;-72
2022/09/22 02:21:40;;;;;;;9.23;6.03;;;;;;;3.92;100.00;95166.97;5058680;28;20105;-72
2022/09/22 02:24:43;;;;;;;11.77;5.60;;;;;;;3.84;100.00;95156.78;5056835;28;20048;-73
2022/09/22 02:27:26;;;;;;;7.35;5.10;;;;;;;3.78;100.00;95160.06;5052797;28;20070;-72
2022/09/22 02:30:00;;;;;;;11.25;5.90;;;;;;;3.70;100.00;95155.03;5064904;28;20078;-74
2022/09/22 02:32:29;;;;;;;9.75;6.18;;;;;;;3.58;100.00;95146.94;5066028;28;20051;-72
2022/09/22 02:34:56;;;;;;;11.57;5.68;;;;;;;3.55;100.00;95153.28;5058691;28;20452;-73
2022/09/22 02:37:43;;;;;;;13.30;5.95;;;;;;;3.48;100.00;95157.53;5058690;28;20514;-73
2022/09/22 02:40:25;;;;;;;9.00;5.72;;;;;;;3.43;100.00;95154.69;5060953;28;20055;-72
2022/09/22 02:43:20;;;;;;;10.98;6.03;;;;;;;3.34;100.00;95145.47;5060765;28;20040;-73
2022/09/22 02:46:21;;;;;;;14.82;6.07;;;;;;;3.18;100.00;95141.28;5054426;28;20056;-73
2022/09/22 02:48:56;;;;;;;10.10;5.75;;;;;;;3.24;100.00;95156.81;5026410;28;20058;-73
2022/09/22 02:51:23;;;;;;;11.30;6.13;;;;;;;3.18;100.00;95157.50;5060417;28;20052;-72
2022/09/22 02:53:50;;;;;;;10.73;5.93;;;;;;;3.07;100.00;95137.38;5057473;28;20563;-71
2022/09/22 02:56:17;;;;;;;11.20;6.10;;;;;;;3.17;100.00;95153.38;5057093;28;20037;-72
2022/09/22 02:58:44;;;;;;;14.68;5.80;;;;;;;3.07;100.00;95145.09;5057460;28;20056;-72
2022/09/22 03:01:10;;;;;;;11.93;6.57;;;;;;;2.96;100.00;95158.41;5060424;28;20049;-72
2022/09/22 03:03:37;;;;;;;8.20;4.80;;;;;;;2.85;100.00;95162.97;5079146;28;20502;-73
2022/09/22 03:06:05;;;;;;;8.60;5.07;;;;;;;2.82;100.00;95147.09;5078034;28;20039;-73
2022/09/22 03:08:32;;;;;;;10.70;5.97;;;;;;;2.81;100.00;95151.44;5079240;28;20580;-73
2022/09/22 03:10:58;;;;;;;10.48;6.18;;;;;;;2.79;100.00;95153.41;5079201;28;20293;-73
2022/09/22 03:13:26;;;;;;;10.18;6.00;;;;;;;2.72;100.00;95160.22;5080273;28;20067;-73
2022/09/22 03:15:53;;;;;;;9.20;5.95;;;;;;;2.72;100.00;95170.50;5079066;28;20131;-73
2022/09/22 03:18:20;;;;;;;12.18;5.68;;;;;;;2.69;100.00;95168.28;5080835;28;20040;-72
2022/09/22 03:20:46;;;;;;;12.93;7.03;;;;;;;2.67;100.00;95165.88;5079626;28;20101;-72
2022/09/22 03:23:13;;;;;;;14.52;6.55;;;;;;;2.52;100.00;95151.34;5078945;28;20044;-73
2022/09/22 03:25:40;;;;;;;9.30;5.97;;;;;;;2.55;100.00;95167.25;5081675;28;20044;-73
2022/09/22 03:28:07;;;;;;;12.70;6.68;;;;;;;2.49;100.00;95167.94;5078547;28;20048;-73
2022/09/22 03:30:36;;;;;;;11.02;5.70;;;;;;;2.41;100.00;95173.13;5083618;28;20154;-73
2022/09/22 03:33:03;;;;;;;9.82;5.85;;;;;;;2.31;100.00;95165.66;5080145;28;20089;-72
2022/09/22 03:35:29;;;;;;;9.30;5.80;;;;;;;2.31;100.00;95168.22;5083395;28;20067;-73
2022/09/22 03:37:56;;;;;;;9.73;5.97;;;;;;;2.25;100.00;95167.16;5080280;28;20044;-73
2022/09/22 03:40:23;;;;;;;10.50;5.15;;;;;;;2.24;100.00;95169.88;5080298;28;20074;-73
2022/09/22 03:42:50;;;;;;;11.13;5.45;;;;;;;2.18;100.00;95152.56;5076963;28;20180;-72
2022/09/22 03:45:17;;;;;;;10.88;6.40;;;;;;;2.27;100.00;95162.63;5080532;28;20048;-72
2022/09/22 03:47:45;;;;;;;12.63;7.03;;;;;;;2.27;100.00;95174.69;5081185;28;20055;-71
2022/09/22 03:50:12;;;;;;;13.45;7.47;;;;;;;2.24;100.00;95167.31;5080392;28;20039;-72
2022/09/22 03:52:41;;;;;;;9.55;6.22;;;;;;;2.16;100.00;95151.94;5083391;28;20093;-72
2022/09/22 03:55:09;;;;;;;15.10;6.90;;;;;;;2.27;100.00;95182.41;5081356;28;20047;-73
2022/09/22 03:57:36;;;;;;;13.15;6.93;;;;;;;2.17;100.00;95169.75;5080130;28;20173;-72
2022/09/22 04:00:04;;;;;;;11.65;6.55;;;;;;;2.23;100.00;95188.81;5082368;28;20044;-73
2022/09/22 04:02:37;;;;;;;14.23;7.18;;;;;;;2.18;100.00;95185.97;5088298;28;20044;-73
2022/09/22 04:05:04;;;;;;;13.55;6.93;;;;;;;1.99;100.00;95162.31;5082900;28;20047;-72
2022/09/22 04:07:32;;;;;;;24.02;8.45;;;;;;;2.10;100.00;95173.97;5082651;28;20507;-72
2022/09/22 04:09:58;;;;;;;13.60;7.10;;;;;;;2.17;100.00;95180.03;5100044;28;20096;-72
2022/09/22 04:12:25;;;;;;;11.25;6.88;;;;;;;2.18;100.00;95185.97;5082376;28;20051;-73
2022/09/22 04:14:52;;;;;;;17.52;8.35;;;;;;;2.23;100.00;95183.69;5064420;28;20127;-71
2022/09/22 04:17:19;;;;;;;13.55;7.18;;;;;;;2.29;100.00;95183.81;5099916;28;20036;-73
2022/09/22 04:19:46;;;;;;;13.90;7.53;;;;;;;2.32;100.00;95182.66;5099955;28;20126;-73
2022/09/22 04:22:13;;;;;;;18.08;7.28;;;;;;;2.40;100.00;95179.25;5068045;27;20551;-73
2022/09/22 04:24:40;;;;;;;16.92;7.82;;;;;;;2.34;100.00;95165.31;5069512;28;20158;-73
2022/09/22 04:27:07;;;;;;;19.95;8.48;;;;;;;2.48;100.00;95172.28;5104096;27;20123;-73
2022/09/22 04:29:46;;;;;;;21.67;8.15;;;;;;;2.46;100.00;95171.63;5085775;28;20097;-73
2022/09/22 04:32:13;;;;;;;25.50;7.18;;;;;;;2.32;100.00;95172.38;5084853;28;20040;-72
2022/09/22 04:34:40;;;;;;;17.15;6.82;;;;;;;2.36;100.00;95177.97;5105306;27;20134;-73
2022/09/22 04:37:07;;;;;;;18.58;6.65;;;;;;;2.25;100.00;95176.59;5103338;28;20047;-71
2022/09/22 04:39:35;;;;;;;14.93;7.07;;;;;;;2.21;100.00;95167.66;5103744;27;20139;-71
2022/09/22 04:42:02;;;;;;;32.33;7.68;;;;;;;2.28;100.00;95186.56;5083062;28;20038;-71
2022/09/22 04:44:30;;;;;;;13.27;6.53;;;;;;;2.24;100.00;95175.81;5103815;27;20079;-71
2022/09/22 04:47:01;;;;;;;15.60;7.35;;;;;;;2.31;100.00;95173.38;5085370;27;20097;-72
2022/09/22 04:49:28;;;;;;;13.70;6.68;;;;;;;2.39;100.00;95178.44;5085045;28;20130;-71
2022/09/22 04:51:55;;;;;;;16.75;8.38;;;;;;;2.51;100.00;95180.63;5103257;28;20158;-72
2022/09/22 04:54:22;;;;;;;23.83;10.73;;;;;;;2.66;100.00;95189.19;5104379;27;20123;-70
2022/09/22 04:56:49;;;;;;;41.47;20.05;;;;;;;2.66;100.00;95173.75;5101188;27;20464;-72
2022/09/22 04:59:16;;;;;;;57.03;25.38;;;;;;;2.79;100.00;95173.97;5083898;28;20047;-72
2022/09/22 05:01:43;;;;;;;45.88;19.83;;;;;;;3.04;100.00;95196.91;5086006;28;20070;-72
2022/09/22 05:04:09;;;;;;;62.55;27.85;;;;;;;3.13;100.00;95180.41;5084417;28;20130;-72
2022/09/22 05:06:37;;;;;;;58.78;28.17;;;;;;;3.17;100.00;95171.38;5103472;27;20047;-72
2022/09/22 05:09:04;;;;;;;56.80;26.52;;;;;;;3.42;100.00;95189.13;5103432;27;20512;-72
2022/09/22 05:11:31;;;;;;;45.55;24.55;;;;;;;3.55;100.00;95189.31;5087038;28;20046;-71
2022/09/22 05:13:58;;;;;;;46.78;23.90;;;;;;;3.71;100.00;95192.69;5102752;28;20040;-72
2022/09/22 05:16:25;;;;;;;36.17;17.65;;;;;;;3.82;100.00;95199.97;5087068;28;20090;-72
2022/09/22 05:18:52;;;;;;;28.40;13.88;;;;;;;3.96;100.00;95188.84;5083892;28;20043;-72
2022/09/22 05:21:19;;;;;;;21.90;10.95;;;;;;;4.18;100.00;95204.34;5084684;28;20044;-72
2022/09/22 05:23:46;;;;;;;17.55;11.32;;;;;;;4.20;100.00;95172.25;5082314;28;20117;-72
2022/09/22 05:26:13;;;;;;;16.77;7.85;;;;;;;4.48;100.00;95193.94;5080586;28;20047;-72
2022/09/22 05:28:40;;;;;;;14.23;8.48;;;;;;;4.70;100.00;95202.47;5101439;27;20036;-72
2022/09/22 05:31:07;;;;;;;10.27;6.53;;;;;;;4.86;100.00;95201.44;5085163;28;20052;-71
2022/09/22 05:33:33;;;;;;;13.50;6.25;;;;;;;5.00;100.00;95197.97;5101540;27;20027;-72
2022/09/22 05:36:01;;;;;;;10.98;6.55;;;;;;;5.13;100.00;95198.09;5084349;28;20047;-72
2022/09/22 05:38:28;;;;;;;7.78;5.07;;;;;;;5.29;100.00;95209.09;5104194;27;20088;-72
2022/09/22 05:40:55;;;;;;;12.65;5.80;;;;;;;5.34;100.00;95178.34;5105038;27;20051;-72
2022/09/22 05:43:22;;;;;;;9.13;5.97;;;;;;;5.52;100.00;95188.97;5097259;27;20036;-72
2022/09/22 05:45:49;;;;;;;6.75;4.68;;;;;;;5.71;100.00;95194.47;5083297;28;20508;-72
2022/09/22 05:48:16;;;;;;;9.13;5.78;;;;;;;5.77;100.00;95188.53;5102581;28;20050;-72
2022/09/22 05:50:44;;;;;;;10.05;6.32;;;;;;;6.03;100.00;95197.41;5104536;27;20494;-72
2022/09/22 05:53:12;;;;;;;6.72;4.90;;;;;;;6.20;100.00;95192.72;5104737;27;20040;-71
2022/09/22 05:55:39;;;;;;;10.15;5.07;;;;;;;6.24;100.00;95204.25;5066704;28;20068;-72
2022/09/22 05:58:10;;;;;;;9.82;6.20;;;;;;;6.30;100.00;95199.09;5081353;28;20134;-72
2022/09/22 06:00:39;;;;;;;10.13;6.03;;;;;;;6.41;100.00;95199.50;5084333;28;20479;-72
2022/09/22 06:03:06;;;;;;;8.95;6.25;;;;;;;6.50;100.00;95199.16;5103684;27;20697;-70
2022/09/22 06:05:33;;;;;;;13.32;7.63;;;;;;;6.67;100.00;95202.16;5104353;27;20035;-72
2022/09/22 06:08:05;;;;;;;10.50;6.72;;;;;;;6.83;100.00;95197.59;5102319;27;20050;-72
2022/09/22 06:10:34;;;;;;;9.05;5.53;;;;;;;6.94;100.00;95199.59;5083379;28;20515;-71
2022/09/22 06:13:03;;;;;;;9.73;5.43;;;;;;;7.00;100.00;95187.66;5101547;28;20131;-72
2022/09/22 06:15:32;;;;;;;8.20;5.78;;;;;;;7.07;100.00;95186.63;5100541;28;20367;-72
2022/09/22 06:18:00;;;;;;;8.98;5.80;;;;;;;7.32;100.00;95201.56;5068629;28;20065;-71
2022/09/22 06:20:27;;;;;;;19.08;8.57;;;;;;;7.23;100.00;95192.41;5085683;28;20039;-72
2022/09/22 06:22:55;;;;;;;17.58;5.60;;;;;;;7.17;100.00;95156.97;5101565;28;20039;-72
2022/09/22 06:25:22;;;;;;;11.95;5.93;;;;;;;7.53;100.00;95202.38;5085207;27;20036;-72
2022/09/22 06:28:04;;;;;;;10.30;5.78;;;;;;;7.53;100.00;95207.56;5083502;28;20035;-72
2022/09/22 06:30:32;;;;;;;8.77;5.82;;;;;;;7.56;100.00;95199.34;5099423;28;20039;-73
2022/09/22 06:32:59;;;;;;;15.05;7.03;;;;;;;7.50;100.00;95187.22;5085377;28;20040;-72
2022/09/22 06:35:34;;;;;;;12.45;6.97;;;;;;;7.68;100.00;95189.94;5100507;27;20442;-72
2022/09/22 06:38:01;;;;;;;9.85;6.32;;;;;;;7.88;100.00;95199.47;5083108;28;20055;-72
2022/09/22 06:40:28;;;;;;;15.18;7.40;;;;;;;8.05;100.00;95200.63;5080716;28;20048;-72
2022/09/22 06:43:06;;;;;;;11.95;7.40;;;;;;;8.19;100.00;95196.97;5078862;28;20040;-67
2022/09/22 06:45:33;;;;;;;8.88;6.32;;;;;;;8.38;100.00;95207.47;5098361;28;20051;-67
2022/09/22 06:48:00;;;;;;;9.75;6.22;;;;;;;8.39;100.00;95191.69;5083079;28;20039;-67
2022/09/22 06:50:31;;;;;;;14.48;8.25;;;;;;;8.60;100.00;95203.56;5101733;27;20040;-67
2022/09/22 06:53:03;;;;;;;11.10;7.32;;;;;;;8.60;100.00;95206.16;5082882;28;20035;-69
2022/09/22 06:55:30;;;;;;;9.75;6.90;;;;;;;8.46;100.00;95186.47;5101575;28;20545;-72
2022/09/22 06:57:59;;;;;;;9.82;7.65;;;;;;;8.57;100.00;95204.00;5102114;28;20126;-72
2022/09/22 07:00:33;;;;;;;11.32;7.40;;;;;;;8.42;100.00;95198.28;5103971;27;20108;-72
2022/09/22 07:03:19;;;;;;;9.48;7.07;;;;;;;8.40;100.00;95182.09;5083277;28;20132;-74
2022/09/22 07:05:59;;;;;;;11.15;7.18;;;;;;;8.75;100.00;95194.69;5082273;28;20055;-73
2022/09/22 07:08:28;;;;;;;12.02;7.63;;;;;;;8.92;100.00;95200.97;5084525;28;20047;-70
2022/09/22 07:11:01;;;;;;;9.20;6.65;;;;;;;9.08;100.00;95193.66;5106177;28;20442;-74
2022/09/22 07:13:29;;;;;;;9.60;6.63;;;;;;;9.25;100.00;95194.69;5104215;28;20505;-70
2022/09/22 07:16:06;;;;;;;8.20;6.72;;;;;;;9.26;100.00;95200.72;5101201;28;20143;-68
2022/09/22 07:18:34;;;;;;;9.82;6.60;;;;;;;9.38;100.00;95205.00;5099749;28;20069;-69
2022/09/22 07:21:10;;;;;;;9.75;5.80;;;;;;;9.41;100.00;95202.97;5082784;28;20044;-67
2022/09/22 07:23:38;;;;;;;9.02;6.28;;;;;;;9.53;100.00;95185.66;5099836;28;20551;-69
2022/09/22 07:26:07;;;;;;;7.45;5.45;;;;;;;9.61;100.00;95193.16;5102041;28;20040;-75
2022/09/22 07:28:35;;;;;;;10.07;6.22;;;;;;;9.72;100.00;95187.28;5099235;28;20396;-75
2022/09/22 07:31:12;;;;;;;9.18;6.10;;;;;;;9.73;100.00;95188.84;5082354;28;20560;-75
2022/09/22 07:33:42;;;;;;;6.43;4.60;;;;;;;9.81;100.00;95182.56;5097531;28;20515;-75
2022/09/22 07:36:10;;;;;;;7.57;5.53;;;;;;;9.85;100.00;95195.91;5101734;28;20063;-75
2022/09/22 07:38:39;;;;;;;7.57;5.70;;;;;;;9.86;100.00;95197.53;5110139;28;20040;-74
2022/09/22 07:41:10;;;;;;;8.02;5.53;;;;;;;9.96;100.00;95192.63;5107355;28;20051;-76
2022/09/22 07:43:39;;;;;;;8.30;6.35;;;;;;;10.19;100.00;95183.31;5072352;28;20509;-76
2022/09/22 07:46:06;;;;;;;9.52;5.75;;;;;;;10.52;100.00;95199.34;5107505;28;20098;-75
2022/09/22 07:48:36;;;;;;;8.88;6.28;;;;;;;10.54;100.00;95198.34;5090525;28;20043;-72
2022/09/22 07:51:11;;;;;;;10.30;6.53;;;;;;;10.67;100.00;95203.38;5112035;28;20044;-72
2022/09/22 07:53:44;;;;;;;14.88;6.60;;;;;;;10.85;100.00;95195.47;5109529;28;20042;-72
2022/09/22 07:56:14;;;;;;;8.25;5.40;;;;;;;11.06;100.00;95198.59;5094341;28;20039;-73
2022/09/22 07:58:46;;;;;;;10.25;5.53;;;;;;;10.75;100.00;95177.00;5115431;27;20043;-74
2022/09/22 08:01:13;;;;;;;9.20;5.38;;;;;;;10.98;100.00;95191.09;5119364;27;20057;-74
2022/09/22 08:03:40;;;;;;;9.40;6.22;;;;;;;11.17;100.00;95197.81;5111657;27;20114;-74
2022/09/22 08:06:09;;;;;;;7.90;5.85;;;;;;;11.10;100.00;95168.44;5110163;27;20051;-74
2022/09/22 08:08:38;;;;;;;13.48;4.90;;;;;;;10.94;100.00;95174.31;5112622;27;20039;-74
2022/09/22 08:11:07;;;;;;;6.03;4.53;;;;;;;11.29;100.00;95182.97;5091836;28;20504;-74
2022/09/22 08:13:35;;;;;;;5.72;4.65;;;;;;;11.58;100.00;95180.47;5112047;27;20074;-74
2022/09/22 08:16:03;;;;;;;7.72;5.38;;;;;;;11.63;100.00;95167.53;5076300;27;20047;-72
2022/09/22 08:18:35;;;;;;;7.68;4.93;;;;;;;11.90;99.93;95187.94;5083789;28;20039;-73
2022/09/22 08:21:02;;;;;;;4.57;3.30;;;;;;;11.79;98.12;95183.50;5103470;27;20048;-71
2022/09/22 08:23:30;;;;;;;8.00;5.10;;;;;;;11.82;98.38;95180.44;5103980;27;20058;-69
2022/09/22 08:26:05;;;;;;;10.00;5.22;;;;;;;11.60;98.44;95157.56;5087330;27;20055;-68
2022/09/22 08:28:33;;;;;;;4.75;3.97;;;;;;;11.82;97.64;95170.78;5100509;27;20469;-68
2022/09/22 08:31:00;;;;;;;10.23;4.07;;;;;;;12.15;96.73;95173.81;5102760;27;20043;-69
2022/09/22 08:33:31;;;;;;;7.22;3.70;;;;;;;12.17;94.38;95179.59;5101233;27;20318;-68
2022/09/22 08:36:02;;;;;;;3.25;2.85;;;;;;;12.36;92.80;95178.38;5085556;27;20047;-68
2022/09/22 08:38:32;;;;;;;4.93;3.47;;;;;;;12.71;92.17;95177.47;5100231;27;20104;-69
2022/09/22 08:41:36;;;;;;;4.35;3.42;;;;;;;12.91;91.16;95170.97;5084642;28;20070;-69
2022/09/22 08:44:27;;;;;;;6.13;1.95;;;;;;;13.12;80.65;95172.88;5074019;27;20051;-70
2022/09/22 08:46:59;;;;;;;6.45;2.40;;;;;;;13.52;78.31;95161.47;5100431;27;20207;-71
2022/09/22 08:52:40;;;;;;;2.67;2.13;;;;;;;13.99;72.33;95169.91;5085977;28;20051;-75
2022/09/22 08:55:18;;;;;;;7.90;4.57;;;;;;;14.15;70.75;95158.56;5083169;27;20071;-71
2022/09/22 08:57:58;;;;;;;2.13;1.67;;;;;;;14.60;67.14;95165.34;5100542;28;20188;-70
2022/09/22 09:00:31;;;;;;;5.13;2.60;;;;;;;14.54;67.38;95166.31;5108108;27;20076;-71
2022/09/22 09:03:39;;;;;;;3.57;2.23;;;;;;;14.61;68.17;95161.69;5084659;28;20562;-70
2022/09/22 09:06:33;;;;;;;3.33;2.30;;;;;;;14.77;66.17;95159.22;5063124;28;20130;-69
2022/09/22 09:09:09;;;;;;;38.15;19.10;;;;;;;15.03;66.35;95166.25;5082283;27;20114;-69
2022/09/22 09:12:05;;;;;;;10.77;7.40;;;;;;;15.17;63.25;95157.97;5086077;28;20047;-69
2022/09/22 09:14:57;;;;;;;2.63;2.00;;;;;;;15.19;62.82;95161.13;5040108;28;20515;-69
2022/09/22 09:17:28;;;;;;;2.20;1.85;;;;;;;15.09;60.89;95152.16;5082371;28;20674;-70
2022/09/22 09:20:11;;;;;;;4.53;3.30;;;;;;;15.21;61.41;95153.78;5102712;27;20043;-69
2022/09/22 09:22:47;;;;;;;2.83;2.33;;;;;;;15.52;61.91;95164.50;5101766;27;20112;-70
2022/09/22 09:25:21;;;;;;;4.28;2.58;;;;;;;15.52;61.87;95159.25;5101650;28;20110;-70
2022/09/22 09:27:59;;;;;;;2.83;1.80;;;;;;;15.45;60.27;95149.75;5083980;28;20044;-71
2022/09/22 09:30:31;;;;;;;2.30;1.77;;;;;;;15.38;58.54;95154.44;5080864;28;20067;-71
2022/09/22 09:33:01;;;;;;;2.58;1.83;;;;;;;15.54;59.31;95159.78;5099336;27;20044;-71
2022/09/22 09:35:44;;;;;;;17.25;14.27;;;;;;;15.55;59.37;95164.00;5080154;28;20032;-71
2022/09/22 09:38:14;;;;;;;2.03;1.67;;;;;;;15.64;58.17;95162.47;5099873;28;20127;-71
2022/09/22 09:40:48;;;;;;;6.65;3.17;;;;;;;15.78;57.36;95137.34;5101420;28;20469;-71
2022/09/22 09:43:15;;;;;;;2.42;1.92;;;;;;;16.02;55.29;95148.22;5081717;28;20136;-72
2022/09/22 09:46:00;;;;;;;3.92;1.30;;;;;;;16.10;55.54;95149.59;5102935;28;20444;-71
2022/09/22 09:49:04;;;;;;;4.70;1.80;;;;;;;15.80;53.90;95151.03;5102234;27;20209;-76
2022/09/22 09:51:38;;;;;;;14.13;2.70;;;;;;;15.94;54.54;95147.94;5099150;27;20057;-72
2022/09/22 09:54:08;;;;;;;3.38;1.95;;;;;;;15.96;54.41;95144.00;5100812;27;20509;-73
2022/09/22 09:57:20;;;;;;;1.90;1.30;;;;;;;16.05;52.62;95133.78;5099409;28;20424;-72
2022/09/22 10:00:31;;;;;;;2.45;1.98;;;;;;;16.22;52.68;95131.75;5014701;28;20052;-73
2022/09/22 10:03:10;;;;;;;1.63;1.30;;;;;;;16.38;51.06;95144.91;4995431;28;20131;-73
2022/09/22 10:05:37;;;;;;;4.22;2.25;;;;;;;16.43;50.83;95131.78;5070713;28;20051;-69
2022/09/22 10:08:14;;;;;;;5.18;2.60;;;;;;;16.86;50.00;95129.78;5100355;28;20048;-69
2022/09/22 10:10:44;;;;;;;1.95;1.30;;;;;;;17.46;50.26;95131.81;5102230;27;20062;-69
2022/09/22 10:13:11;;;;;;;2.25;1.30;;;;;;;17.46;48.22;95137.09;5100924;28;20121;-69
2022/09/22 10:16:00;;;;;;;2.97;1.90;;;;;;;17.09;47.97;95143.47;5100677;28;20044;-70
2022/09/22 10:18:56;;;;;;;4.22;3.80;;;;;;;16.79;49.99;95118.69;5100295;28;20146;-73
2022/09/22 10:21:25;;;;;;;4.22;1.70;;;;;;;16.61;50.99;95133.13;5099672;28;20047;-74
2022/09/22 10:23:54;;;;;;;2.30;1.70;;;;;;;16.32;51.48;95130.19;5101579;28;20538;-74
2022/09/22 10:26:29;;;;;;;3.47;1.30;;;;;;;15.57;52.09;95135.66;5083653;28;20484;-74
2022/09/22 10:29:11;;;;;;;6.10;1.35;;;;;;;15.43;53.18;95130.88;5100672;27;20491;-71
2022/09/22 10:31:40;;;;;;;3.25;1.42;;;;;;;15.56;53.61;95132.25;5083792;28;20516;-75
2022/09/22 10:34:30;;;;;;;4.82;1.38;;;;;;;15.43;54.03;95099.38;5079204;28;20036;-73
2022/09/22 10:36:59;;;;;;;2.45;1.80;;;;;;;15.59;54.05;95128.31;5082214;28;20501;-69
2022/09/22 10:39:35;;;;;;;2.13;1.60;;;;;;;15.70;53.29;95129.97;5102627;28;20047;-73
2022/09/22 10:42:11;;;;;;;1.88;1.52;;;;;;;15.69;53.34;95123.13;5102274;27;20062;-72
2022/09/22 10:44:38;;;;;;;3.05;2.33;;;;;;;15.37;53.73;95110.84;5099819;28;20055;-74
2022/09/22 10:47:31;;;;;;;2.60;1.70;;;;;;;15.43;53.97;95130.88;5105031;27;20260;-71
2022/09/22 10:50:34;;;;;;;2.50;2.28;;;;;;;15.51;53.91;95113.06;5098803;28;20073;-72
2022/09/22 10:53:30;;;;;;;3.13;1.88;;;;;;;15.98;51.06;95117.47;5083112;28;20272;-70
2022/09/22 10:56:04;;;;;;;2.83;2.40;;;;;;;16.27;49.73;95114.41;5100080;27;20070;-70
2022/09/22 10:58:31;;;;;;;;;;;;;;;16.40;49.71;95111.28;5100952;27;20101;-70
2022/09/22 11:01:26;;;;;;;5.90;3.30;;;;;;;17.08;46.61;95115.56;5103834;27;19979;-68
2022/09/22 11:04:34;;;;;;;3.92;1.20;;;;;;;17.14;48.95;95114.50;5068806;28;20072;-74
2022/09/22 11:13:42;;;;;;;1.23;0.50;;;;;;;17.37;44.55;95116.56;5100261;28;20570;-68
2022/09/22 11:16:53;;;;;;;0.93;0.70;;;;;;;17.24;44.94;95113.69;5102089;28;20056;-68
2022/09/22 11:19:44;;;;;;;1.10;0.70;;;;;;;17.29;45.06;95117.13;5056554;28;20043;-67
2022/09/22 11:22:28;;;;;;;1.02;0.60;;;;;;;17.56;41.48;95122.06;5104037;28;20615;-70
2022/09/22 11:24:58;;;;;;;1.50;0.82;;;;;;;17.58;41.89;95119.16;5103666;28;20635;-69
2022/09/22 11:27:52;;;;;;;1.20;0.85;;;;;;;17.84;41.93;95100.63;5095756;28;20036;-69
2022/09/22 11:30:21;;;;;;;1.08;0.60;;;;;;;18.28;38.42;95099.94;5084010;28;20138;-68
2022/09/22 11:33:01;;;;;;;1.27;0.50;;;;;;;18.03;37.00;95114.81;5082045;27;20048;-69
2022/09/22 11:36:03;;;;;;;6.80;1.00;;;;;;;18.09;38.24;95108.44;5083939;27;20043;-69
2022/09/22 11:38:59;;;;;;;1.85;0.68;;;;;;;17.96;38.87;95099.28;5100153;27;20493;-69
2022/09/22 11:41:55;;;;;;;1.60;0.63;;;;;;;18.27;36.08;95103.63;5087314;27;20593;-69
2022/09/22 11:44:49;;;;;;;5.60;3.85;;;;;;;18.45;37.09;95095.06;5098843;27;20046;-69
2022/09/22 11:47:19;;;;;;;2.05;1.00;;;;;;;19.26;36.31;95092.84;5083806;27;20040;-67
2022/09/22 11:50:04;;;;;;;1.02;0.60;;;;;;;19.27;36.26;95094.44;5105209;27;20611;-68
2022/09/22 11:52:49;;;;;;;0.85;0.60;;;;;;;19.39;35.33;95087.97;5105579;27;20043;-68
2022/09/22 11:55:45;;;;;;;1.38;0.52;;;;;;;19.03;35.69;95093.59;5102908;27;20047;-67
2022/09/22 11:58:19;;;;;;;1.30;0.73;;;;;;;18.46;34.86;95094.00;5102799;27;20306;-70
2022/09/22 12:00:53;;;;;;;2.47;0.45;;;;;;;18.61;37.04;95097.59;5087290;27;20058;-67
2022/09/22 12:03:30;;;;;;;;;;;;;;;18.56;38.43;95090.50;5103456;27;20132;-75
2022/09/22 12:06:04;;;;;;;2.38;1.55;;;;;;;18.52;39.94;95085.00;5066322;28;20138;-77
2022/09/22 12:08:37;;;;;;;6.00;3.90;;;;;;;18.82;39.60;95091.16;5087569;28;20534;-76
2022/09/22 12:11:06;;;;;;;1.88;0.90;;;;;;;18.64;39.21;95091.78;5090615;27;20397;-75
2022/09/22 12:13:36;;;;;;;2.95;1.67;;;;;;;18.65;38.24;95088.06;5102937;28;20039;-72